sensor_id;sensor_type;location;lat;lon;timestamp;temperature;humidity
67942;SHT31;54731;42.600;23.476;2022-09-16T00:00:11;24.17;39.98
67942;SHT31;54731;42.600;23.476;2022-09-16T00:02:37;24.17;39.96
67942;SHT31;54731;42.600;23.476;2022-09-16T00:05:02;24.14;40.38
67942;SHT31;54731;42.600;23.476;2022-09-16T00:07:28;24.17;40.38
67942;SHT31;54731;42.600;23.476;2022-09-16T00:09:53;24.16;40.41
67942;SHT31;54731;42.600;23.476;2022-09-16T00:12:19;24.12;40.30
67942;SHT31;54731;42.600;23.476;2022-09-16T00:14:44;24.17;40.33
67942;SHT31;54731;42.600;23.476;2022-09-16T00:17:09;24.17;40.26
67942;SHT31;54731;42.600;23.476;2022-09-16T00:19:35;24.13;40.57
67942;SHT31;54731;42.600;23.476;2022-09-16T00:22:00;24.09;40.27
67942;SHT31;54731;42.600;23.476;2022-09-16T00:24:25;24.09;40.52
67942;SHT31;54731;42.600;23.476;2022-09-16T00:26:50;24.07;40.28
67942;SHT31;54731;42.600;23.476;2022-09-16T00:29:16;24.07;40.38
67942;SHT31;54731;42.600;23.476;2022-09-16T00:31:41;24.03;40.38
67942;SHT31;54731;42.600;23.476;2022-09-16T00:34:06;24.10;39.30
67942;SHT31;54731;42.600;23.476;2022-09-16T00:36:32;24.07;40.02
67942;SHT31;54731;42.600;23.476;2022-09-16T00:38:57;24.09;40.11
67942;SHT31;54731;42.600;23.476;2022-09-16T00:41:28;24.03;39.77
67942;SHT31;54731;42.600;23.476;2022-09-16T00:43:57;24.07;39.59
67942;SHT31;54731;42.600;23.476;2022-09-16T00:46:43;24.09;39.15
67942;SHT31;54731;42.600;23.476;2022-09-16T00:51:40;23.99;39.77
67942;SHT31;54731;42.600;23.476;2022-09-16T00:54:06;23.99;39.76
67942;SHT31;54731;42.600;23.476;2022-09-16T00:56:36;23.96;40.36
67942;SHT31;54731;42.600;23.476;2022-09-16T00:59:08;23.87;40.06
67942;SHT31;54731;42.600;23.476;2022-09-16T01:01:35;23.85;40.77
67942;SHT31;54731;42.600;23.476;2022-09-16T01:04:08;23.76;43.08
67942;SHT31;54731;42.600;23.476;2022-09-16T01:06:37;23.61;44.98
67942;SHT31;54731;42.600;23.476;2022-09-16T01:09:03;23.45;45.03
67942;SHT31;54731;42.600;23.476;2022-09-16T01:11:28;23.35;44.93
67942;SHT31;54731;42.600;23.476;2022-09-16T01:13:54;23.25;45.30
67942;SHT31;54731;42.600;23.476;2022-09-16T01:19:37;23.15;43.10
67942;SHT31;54731;42.600;23.476;2022-09-16T01:21:43;23.15;42.79
67942;SHT31;54731;42.600;23.476;2022-09-16T01:35:00;23.14;42.83
67942;SHT31;54731;42.600;23.476;2022-09-16T01:37:49;23.12;42.03
67942;SHT31;54731;42.600;23.476;2022-09-16T01:48:52;22.81;46.35
67942;SHT31;54731;42.600;23.476;2022-09-16T01:58:59;22.47;47.95
67942;SHT31;54731;42.600;23.476;2022-09-16T02:01:32;22.41;46.99
67942;SHT31;54731;42.600;23.476;2022-09-16T02:04:14;22.35;49.02
67942;SHT31;54731;42.600;23.476;2022-09-16T02:06:42;22.20;49.11
67942;SHT31;54731;42.600;23.476;2022-09-16T02:09:15;22.23;48.88
67942;SHT31;54731;42.600;23.476;2022-09-16T02:11:42;22.24;49.32
67942;SHT31;54731;42.600;23.476;2022-09-16T02:14:30;22.13;49.73
67942;SHT31;54731;42.600;23.476;2022-09-16T02:17:06;22.05;50.43
67942;SHT31;54731;42.600;23.476;2022-09-16T02:19:42;21.98;50.41
67942;SHT31;54731;42.600;23.476;2022-09-16T02:22:12;21.89;50.82
67942;SHT31;54731;42.600;23.476;2022-09-16T02:24:39;21.89;51.63
67942;SHT31;54731;42.600;23.476;2022-09-16T02:27:08;21.85;51.41
67942;SHT31;54731;42.600;23.476;2022-09-16T02:29:44;21.82;50.95
67942;SHT31;54731;42.600;23.476;2022-09-16T02:32:12;21.83;52.06
67942;SHT31;54731;42.600;23.476;2022-09-16T02:34:46;21.78;52.53
67942;SHT31;54731;42.600;23.476;2022-09-16T02:37:17;21.75;51.52
67942;SHT31;54731;42.600;23.476;2022-09-16T02:39:48;21.74;50.67
67942;SHT31;54731;42.600;23.476;2022-09-16T02:42:14;21.62;50.97
67942;SHT31;54731;42.600;23.476;2022-09-16T02:44:40;21.62;50.73
67942;SHT31;54731;42.600;23.476;2022-09-16T02:52:52;21.55;51.52
67942;SHT31;54731;42.600;23.476;2022-09-16T02:57:57;21.51;50.48
67942;SHT31;54731;42.600;23.476;2022-09-16T03:00:23;21.47;50.63
67942;SHT31;54731;42.600;23.476;2022-09-16T03:02:48;21.47;52.49
67942;SHT31;54731;42.600;23.476;2022-09-16T03:05:13;21.41;53.00
67942;SHT31;54731;42.600;23.476;2022-09-16T03:07:40;21.28;53.42
67942;SHT31;54731;42.600;23.476;2022-09-16T03:10:08;21.27;52.66
67942;SHT31;54731;42.600;23.476;2022-09-16T03:12:44;21.23;53.12
67942;SHT31;54731;42.600;23.476;2022-09-16T03:15:35;21.20;53.37
67942;SHT31;54731;42.600;23.476;2022-09-16T03:21:14;21.18;53.23
67942;SHT31;54731;42.600;23.476;2022-09-16T03:24:51;21.11;53.64
67942;SHT31;54731;42.600;23.476;2022-09-16T03:29:32;21.04;53.32
67942;SHT31;54731;42.600;23.476;2022-09-16T03:32:04;21.05;53.41
67942;SHT31;54731;42.600;23.476;2022-09-16T03:34:39;21.05;53.58
67942;SHT31;54731;42.600;23.476;2022-09-16T03:37:09;20.98;53.09
67942;SHT31;54731;42.600;23.476;2022-09-16T03:39:36;21.04;52.84
67942;SHT31;54731;42.600;23.476;2022-09-16T03:42:04;21.08;52.63
67942;SHT31;54731;42.600;23.476;2022-09-16T03:44:34;21.08;52.59
67942;SHT31;54731;42.600;23.476;2022-09-16T03:47:01;21.08;54.33
67942;SHT31;54731;42.600;23.476;2022-09-16T03:49:26;21.03;53.60
67942;SHT31;54731;42.600;23.476;2022-09-16T03:51:52;21.04;53.62
67942;SHT31;54731;42.600;23.476;2022-09-16T03:54:17;20.97;55.33
67942;SHT31;54731;42.600;23.476;2022-09-16T03:56:42;21.05;53.54
67942;SHT31;54731;42.600;23.476;2022-09-16T03:59:07;21.05;52.86
67942;SHT31;54731;42.600;23.476;2022-09-16T04:01:33;20.98;53.15
67942;SHT31;54731;42.600;23.476;2022-09-16T04:03:58;21.00;53.69
67942;SHT31;54731;42.600;23.476;2022-09-16T04:06:23;20.97;52.96
67942;SHT31;54731;42.600;23.476;2022-09-16T04:08:49;20.93;54.02
67942;SHT31;54731;42.600;23.476;2022-09-16T04:11:14;20.95;54.53
67942;SHT31;54731;42.600;23.476;2022-09-16T04:13:39;20.91;54.46
67942;SHT31;54731;42.600;23.476;2022-09-16T04:16:05;20.91;53.81
67942;SHT31;54731;42.600;23.476;2022-09-16T04:18:31;20.84;57.13
67942;SHT31;54731;42.600;23.476;2022-09-16T04:20:57;20.81;57.75
67942;SHT31;54731;42.600;23.476;2022-09-16T04:23:24;20.80;59.68
67942;SHT31;54731;42.600;23.476;2022-09-16T04:25:54;20.76;56.61
67942;SHT31;54731;42.600;23.476;2022-09-16T04:28:20;20.72;54.92
67942;SHT31;54731;42.600;23.476;2022-09-16T04:30:45;20.70;54.17
67942;SHT31;54731;42.600;23.476;2022-09-16T04:33:10;20.72;53.53
67942;SHT31;54731;42.600;23.476;2022-09-16T04:35:36;20.72;54.78
67942;SHT31;54731;42.600;23.476;2022-09-16T04:38:01;20.69;53.63
67942;SHT31;54731;42.600;23.476;2022-09-16T04:40:26;20.72;53.02
67942;SHT31;54731;42.600;23.476;2022-09-16T04:42:52;20.67;52.98
67942;SHT31;54731;42.600;23.476;2022-09-16T04:45:17;20.70;55.50
67942;SHT31;54731;42.600;23.476;2022-09-16T04:47:42;20.70;55.15
67942;SHT31;54731;42.600;23.476;2022-09-16T04:50:08;20.72;53.74
67942;SHT31;54731;42.600;23.476;2022-09-16T04:52:33;20.66;54.66
67942;SHT31;54731;42.600;23.476;2022-09-16T04:54:59;20.74;52.51
67942;SHT31;54731;42.600;23.476;2022-09-16T04:57:24;20.77;52.30
67942;SHT31;54731;42.600;23.476;2022-09-16T04:59:49;20.76;52.86
67942;SHT31;54731;42.600;23.476;2022-09-16T05:02:15;20.77;53.35
67942;SHT31;54731;42.600;23.476;2022-09-16T05:04:40;20.73;53.65
67942;SHT31;54731;42.600;23.476;2022-09-16T05:07:05;20.74;52.61
67942;SHT31;54731;42.600;23.476;2022-09-16T05:09:31;20.80;52.08
67942;SHT31;54731;42.600;23.476;2022-09-16T05:11:56;20.87;51.42
67942;SHT31;54731;42.600;23.476;2022-09-16T05:14:21;20.87;51.49
67942;SHT31;54731;42.600;23.476;2022-09-16T05:16:46;20.95;50.89
67942;SHT31;54731;42.600;23.476;2022-09-16T05:19:12;20.93;51.41
67942;SHT31;54731;42.600;23.476;2022-09-16T05:21:38;20.97;50.88
67942;SHT31;54731;42.600;23.476;2022-09-16T05:24:09;21.08;50.44
67942;SHT31;54731;42.600;23.476;2022-09-16T05:26:37;21.10;50.29
67942;SHT31;54731;42.600;23.476;2022-09-16T05:29:06;21.14;50.09
67942;SHT31;54731;42.600;23.476;2022-09-16T05:31:34;21.17;50.96
67942;SHT31;54731;42.600;23.476;2022-09-16T05:34:14;21.23;50.13
67942;SHT31;54731;42.600;23.476;2022-09-16T05:36:41;21.30;50.41
67942;SHT31;54731;42.600;23.476;2022-09-16T05:39:06;21.32;50.73
67942;SHT31;54731;42.600;23.476;2022-09-16T05:41:32;21.34;49.86
67942;SHT31;54731;42.600;23.476;2022-09-16T05:43:58;21.48;49.21
67942;SHT31;54731;42.600;23.476;2022-09-16T05:46:23;21.52;50.41
67942;SHT31;54731;42.600;23.476;2022-09-16T05:48:49;21.52;50.61
67942;SHT31;54731;42.600;23.476;2022-09-16T05:51:17;21.55;50.77
67942;SHT31;54731;42.600;23.476;2022-09-16T05:53:43;21.58;51.27
67942;SHT31;54731;42.600;23.476;2022-09-16T05:56:15;21.61;49.29
67942;SHT31;54731;42.600;23.476;2022-09-16T05:58:40;21.61;50.66
67942;SHT31;54731;42.600;23.476;2022-09-16T06:01:09;21.63;50.64
67942;SHT31;54731;42.600;23.476;2022-09-16T06:03:36;21.65;50.41
67942;SHT31;54731;42.600;23.476;2022-09-16T06:08:45;21.76;49.45
67942;SHT31;54731;42.600;23.476;2022-09-16T06:11:11;21.76;50.62
67942;SHT31;54731;42.600;23.476;2022-09-16T06:13:38;21.76;51.25
67942;SHT31;54731;42.600;23.476;2022-09-16T06:16:04;21.78;49.51
67942;SHT31;54731;42.600;23.476;2022-09-16T06:18:30;21.83;50.28
67942;SHT31;54731;42.600;23.476;2022-09-16T06:20:56;21.86;49.44
67942;SHT31;54731;42.600;23.476;2022-09-16T06:23:22;21.88;48.66
67942;SHT31;54731;42.600;23.476;2022-09-16T06:25:57;21.83;48.92
67942;SHT31;54731;42.600;23.476;2022-09-16T06:28:22;21.79;49.27
67942;SHT31;54731;42.600;23.476;2022-09-16T06:30:47;21.89;49.33
67942;SHT31;54731;42.600;23.476;2022-09-16T06:33:13;21.92;48.61
67942;SHT31;54731;42.600;23.476;2022-09-16T06:35:38;21.90;49.23
67942;SHT31;54731;42.600;23.476;2022-09-16T06:38:03;21.93;49.22
67942;SHT31;54731;42.600;23.476;2022-09-16T06:40:29;21.96;49.76
67942;SHT31;54731;42.600;23.476;2022-09-16T06:42:54;22.00;48.89
67942;SHT31;54731;42.600;23.476;2022-09-16T06:45:20;21.98;49.60
67942;SHT31;54731;42.600;23.476;2022-09-16T06:47:46;21.98;49.87
67942;SHT31;54731;42.600;23.476;2022-09-16T06:50:11;21.96;48.85
67942;SHT31;54731;42.600;23.476;2022-09-16T06:52:36;22.02;50.16
67942;SHT31;54731;42.600;23.476;2022-09-16T06:55:02;22.05;49.81
67942;SHT31;54731;42.600;23.476;2022-09-16T06:57:29;22.06;50.27
67942;SHT31;54731;42.600;23.476;2022-09-16T06:59:54;22.09;49.92
67942;SHT31;54731;42.600;23.476;2022-09-16T07:02:19;22.13;50.75
67942;SHT31;54731;42.600;23.476;2022-09-16T07:04:45;22.12;49.84
67942;SHT31;54731;42.600;23.476;2022-09-16T07:07:11;22.09;49.71
67942;SHT31;54731;42.600;23.476;2022-09-16T07:09:36;22.16;49.43
67942;SHT31;54731;42.600;23.476;2022-09-16T07:12:02;22.16;51.11
67942;SHT31;54731;42.600;23.476;2022-09-16T07:14:28;22.20;51.89
67942;SHT31;54731;42.600;23.476;2022-09-16T07:16:54;22.19;49.77
67942;SHT31;54731;42.600;23.476;2022-09-16T07:19:19;22.19;49.99
67942;SHT31;54731;42.600;23.476;2022-09-16T07:21:45;22.26;50.18
67942;SHT31;54731;42.600;23.476;2022-09-16T07:24:11;22.20;50.78
67942;SHT31;54731;42.600;23.476;2022-09-16T07:26:38;22.29;50.59
67942;SHT31;54731;42.600;23.476;2022-09-16T07:29:05;22.39;50.01
67942;SHT31;54731;42.600;23.476;2022-09-16T07:31:35;22.40;51.60
67942;SHT31;54731;42.600;23.476;2022-09-16T07:34:02;22.43;49.56
67942;SHT31;54731;42.600;23.476;2022-09-16T07:36:33;22.44;49.39
67942;SHT31;54731;42.600;23.476;2022-09-16T07:38:59;22.49;49.34
67942;SHT31;54731;42.600;23.476;2022-09-16T07:41:27;22.50;50.40
67942;SHT31;54731;42.600;23.476;2022-09-16T07:43:54;22.53;49.67
67942;SHT31;54731;42.600;23.476;2022-09-16T07:46:20;22.56;51.80
67942;SHT31;54731;42.600;23.476;2022-09-16T07:48:47;22.63;53.73
67942;SHT31;54731;42.600;23.476;2022-09-16T07:51:15;22.68;49.88
67942;SHT31;54731;42.600;23.476;2022-09-16T07:53:41;22.77;50.85
67942;SHT31;54731;42.600;23.476;2022-09-16T07:56:18;22.87;49.77
67942;SHT31;54731;42.600;23.476;2022-09-16T07:58:45;22.91;48.98
67942;SHT31;54731;42.600;23.476;2022-09-16T08:01:12;22.95;49.16
67942;SHT31;54731;42.600;23.476;2022-09-16T08:03:38;22.98;49.86
67942;SHT31;54731;42.600;23.476;2022-09-16T08:06:10;23.04;49.98
67942;SHT31;54731;42.600;23.476;2022-09-16T08:08:36;23.11;49.10
67942;SHT31;54731;42.600;23.476;2022-09-16T08:11:02;23.15;49.32
67942;SHT31;54731;42.600;23.476;2022-09-16T08:13:29;23.18;49.23
67942;SHT31;54731;42.600;23.476;2022-09-16T08:15:58;23.24;49.22
67942;SHT31;54731;42.600;23.476;2022-09-16T08:18:24;23.34;48.77
67942;SHT31;54731;42.600;23.476;2022-09-16T08:20:49;23.38;49.24
67942;SHT31;54731;42.600;23.476;2022-09-16T08:23:14;23.51;48.09
67942;SHT31;54731;42.600;23.476;2022-09-16T08:25:39;23.59;48.97
67942;SHT31;54731;42.600;23.476;2022-09-16T08:28:05;23.70;49.23
67942;SHT31;54731;42.600;23.476;2022-09-16T08:30:30;23.80;48.34
67942;SHT31;54731;42.600;23.476;2022-09-16T08:32:57;23.92;48.36
67942;SHT31;54731;42.600;23.476;2022-09-16T08:35:23;24.06;48.34
67942;SHT31;54731;42.600;23.476;2022-09-16T08:37:48;24.13;47.21
67942;SHT31;54731;42.600;23.476;2022-09-16T08:40:17;24.21;47.36
67942;SHT31;54731;42.600;23.476;2022-09-16T08:45:46;24.40;46.75
67942;SHT31;54731;42.600;23.476;2022-09-16T08:50:46;24.60;45.65
67942;SHT31;54731;42.600;23.476;2022-09-16T08:53:26;24.60;46.04
67942;SHT31;54731;42.600;23.476;2022-09-16T08:55:56;24.70;47.45
67942;SHT31;54731;42.600;23.476;2022-09-16T08:58:26;24.82;47.48
67942;SHT31;54731;42.600;23.476;2022-09-16T09:03:47;24.99;47.27
67942;SHT31;54731;42.600;23.476;2022-09-16T09:14:41;25.38;46.84
67942;SHT31;54731;42.600;23.476;2022-09-16T09:17:32;25.49;45.71
67942;SHT31;54731;42.600;23.476;2022-09-16T09:26:34;25.80;44.39
67942;SHT31;54731;42.600;23.476;2022-09-16T09:40:34;26.23;43.78
67942;SHT31;54731;42.600;23.476;2022-09-16T09:43:17;26.33;43.31
67942;SHT31;54731;42.600;23.476;2022-09-16T09:48:37;26.36;44.97
67942;SHT31;54731;42.600;23.476;2022-09-16T09:51:09;26.48;45.50
67942;SHT31;54731;42.600;23.476;2022-09-16T09:53:40;26.50;43.90
67942;SHT31;54731;42.600;23.476;2022-09-16T09:56:32;26.60;43.40
67942;SHT31;54731;42.600;23.476;2022-09-16T10:01:55;26.54;42.15
67942;SHT31;54731;42.600;23.476;2022-09-16T10:04:21;26.52;44.39
67942;SHT31;54731;42.600;23.476;2022-09-16T10:06:47;26.58;43.48
67942;SHT31;54731;42.600;23.476;2022-09-16T10:09:14;26.51;44.03
67942;SHT31;54731;42.600;23.476;2022-09-16T10:11:49;26.48;44.43
67942;SHT31;54731;42.600;23.476;2022-09-16T10:14:39;26.43;43.69
67942;SHT31;54731;42.600;23.476;2022-09-16T10:17:14;26.41;43.99
67942;SHT31;54731;42.600;23.476;2022-09-16T10:20:01;26.18;43.71
67942;SHT31;54731;42.600;23.476;2022-09-16T10:22:30;26.13;44.93
67942;SHT31;54731;42.600;23.476;2022-09-16T10:24:58;26.04;43.78
67942;SHT31;54731;42.600;23.476;2022-09-16T10:27:32;25.92;44.67
67942;SHT31;54731;42.600;23.476;2022-09-16T10:30:16;25.94;45.15
67942;SHT31;54731;42.600;23.476;2022-09-16T10:33:16;25.82;46.36
67942;SHT31;54731;42.600;23.476;2022-09-16T10:35:51;25.66;45.30
67942;SHT31;54731;42.600;23.476;2022-09-16T10:38:20;25.45;45.86
67942;SHT31;54731;42.600;23.476;2022-09-16T10:43:33;25.02;48.08
67942;SHT31;54731;42.600;23.476;2022-09-16T10:46:00;24.70;50.37
67942;SHT31;54731;42.600;23.476;2022-09-16T10:48:27;24.36;52.78
67942;SHT31;54731;42.600;23.476;2022-09-16T10:50:53;23.92;54.43
67942;SHT31;54731;42.600;23.476;2022-09-16T10:53:31;23.75;54.65
67942;SHT31;54731;42.600;23.476;2022-09-16T10:55:59;23.48;54.72
67942;SHT31;54731;42.600;23.476;2022-09-16T10:58:25;23.22;54.69
67942;SHT31;54731;42.600;23.476;2022-09-16T11:06:56;22.40;57.83
67942;SHT31;54731;42.600;23.476;2022-09-16T11:09:47;22.19;57.32
67942;SHT31;54731;42.600;23.476;2022-09-16T11:12:37;21.89;57.46
67942;SHT31;54731;42.600;23.476;2022-09-16T11:20:40;21.52;56.14
67942;SHT31;54731;42.600;23.476;2022-09-16T11:23:46;21.54;54.92
67942;SHT31;54731;42.600;23.476;2022-09-16T11:26:15;21.44;54.51
67942;SHT31;54731;42.600;23.476;2022-09-16T11:37:48;21.62;51.92
67942;SHT31;54731;42.600;23.476;2022-09-16T11:46:20;21.83;51.27
67942;SHT31;54731;42.600;23.476;2022-09-16T11:56:45;22.33;51.98
67942;SHT31;54731;42.600;23.476;2022-09-16T11:59:23;22.40;51.81
67942;SHT31;54731;42.600;23.476;2022-09-16T12:01:51;22.49;51.06
67942;SHT31;54731;42.600;23.476;2022-09-16T12:04:28;22.60;51.10
67942;SHT31;54731;42.600;23.476;2022-09-16T12:07:02;22.75;50.03
67942;SHT31;54731;42.600;23.476;2022-09-16T12:09:38;22.88;48.70
67942;SHT31;54731;42.600;23.476;2022-09-16T12:12:22;22.93;49.27
67942;SHT31;54731;42.600;23.476;2022-09-16T12:14:55;23.14;45.83
67942;SHT31;54731;42.600;23.476;2022-09-16T12:17:28;23.41;48.29
67942;SHT31;54731;42.600;23.476;2022-09-16T12:20:13;23.37;57.15
67942;SHT31;54731;42.600;23.476;2022-09-16T12:22:42;23.24;57.94
67942;SHT31;54731;42.600;23.476;2022-09-16T12:27:56;23.14;58.85
67942;SHT31;54731;42.600;23.476;2022-09-16T12:30:30;23.08;59.19
67942;SHT31;54731;42.600;23.476;2022-09-16T12:33:17;23.08;59.28
67942;SHT31;54731;42.600;23.476;2022-09-16T12:36:04;23.08;58.27
67942;SHT31;54731;42.600;23.476;2022-09-16T12:38:31;23.16;58.03
67942;SHT31;54731;42.600;23.476;2022-09-16T12:52:18;22.90;60.56
67942;SHT31;54731;42.600;23.476;2022-09-16T13:00:44;22.60;61.49
67942;SHT31;54731;42.600;23.476;2022-09-16T13:03:20;22.63;61.50
67942;SHT31;54731;42.600;23.476;2022-09-16T13:05:49;22.68;61.46
67942;SHT31;54731;42.600;23.476;2022-09-16T13:08:21;22.70;61.22
67942;SHT31;54731;42.600;23.476;2022-09-16T13:10:57;22.57;62.13
67942;SHT31;54731;42.600;23.476;2022-09-16T13:13:36;22.51;62.91
67942;SHT31;54731;42.600;23.476;2022-09-16T13:16:05;22.37;63.58
67942;SHT31;54731;42.600;23.476;2022-09-16T13:18:45;22.29;63.98
67942;SHT31;54731;42.600;23.476;2022-09-16T13:21:37;22.19;63.70
67942;SHT31;54731;42.600;23.476;2022-09-16T13:24:29;22.22;63.50
67942;SHT31;54731;42.600;23.476;2022-09-16T13:26:55;22.13;60.02
67942;SHT31;54731;42.600;23.476;2022-09-16T13:31:58;22.06;61.49
67942;SHT31;54731;42.600;23.476;2022-09-16T13:34:23;22.03;62.59
67942;SHT31;54731;42.600;23.476;2022-09-16T13:36:49;21.99;62.74
67942;SHT31;54731;42.600;23.476;2022-09-16T13:39:27;21.95;60.86
67942;SHT31;54731;42.600;23.476;2022-09-16T13:41:52;21.95;60.93
67942;SHT31;54731;42.600;23.476;2022-09-16T13:50:03;21.78;61.33
67942;SHT31;54731;42.600;23.476;2022-09-16T13:52:33;21.71;60.15
67942;SHT31;54731;42.600;23.476;2022-09-16T13:55:00;21.72;60.44
67942;SHT31;54731;42.600;23.476;2022-09-16T14:03:03;21.76;60.83
67942;SHT31;54731;42.600;23.476;2022-09-16T14:11:10;22.05;56.47
67942;SHT31;54731;42.600;23.476;2022-09-16T14:13:48;22.24;53.38
67942;SHT31;54731;42.600;23.476;2022-09-16T14:16:19;22.44;52.41
67942;SHT31;54731;42.600;23.476;2022-09-16T14:21:21;22.77;51.80
67942;SHT31;54731;42.600;23.476;2022-09-16T14:23:47;22.90;50.96
67942;SHT31;54731;42.600;23.476;2022-09-16T14:26:18;23.01;50.40
67942;SHT31;54731;42.600;23.476;2022-09-16T14:28:44;23.08;50.59
67942;SHT31;54731;42.600;23.476;2022-09-16T14:31:21;23.14;50.73
67942;SHT31;54731;42.600;23.476;2022-09-16T14:33:52;23.24;50.78
67942;SHT31;54731;42.600;23.476;2022-09-16T14:36:26;23.19;53.93
67942;SHT31;54731;42.600;23.476;2022-09-16T14:38:58;23.08;60.38
67942;SHT31;54731;42.600;23.476;2022-09-16T14:41:28;23.01;60.72
67942;SHT31;54731;42.600;23.476;2022-09-16T14:44:06;22.93;60.62
67942;SHT31;54731;42.600;23.476;2022-09-16T14:46:32;22.91;60.60
67942;SHT31;54731;42.600;23.476;2022-09-16T14:48:57;22.93;60.05
67942;SHT31;54731;42.600;23.476;2022-09-16T14:51:25;22.88;59.90
67942;SHT31;54731;42.600;23.476;2022-09-16T14:53:56;22.87;59.12
67942;SHT31;54731;42.600;23.476;2022-09-16T14:56:22;22.88;59.53
67942;SHT31;54731;42.600;23.476;2022-09-16T14:58:48;22.88;61.29
67942;SHT31;54731;42.600;23.476;2022-09-16T15:01:24;22.84;60.18
67942;SHT31;54731;42.600;23.476;2022-09-16T15:03:54;22.83;60.41
67942;SHT31;54731;42.600;23.476;2022-09-16T15:06:24;22.73;60.92
67942;SHT31;54731;42.600;23.476;2022-09-16T15:09:25;22.61;60.35
67942;SHT31;54731;42.600;23.476;2022-09-16T15:11:55;22.65;59.55
67942;SHT31;54731;42.600;23.476;2022-09-16T15:14:21;22.67;60.16
67942;SHT31;54731;42.600;23.476;2022-09-16T15:16:51;22.60;60.19
67942;SHT31;54731;42.600;23.476;2022-09-16T15:19:38;22.59;60.48
67942;SHT31;54731;42.600;23.476;2022-09-16T15:22:06;22.61;61.24
67942;SHT31;54731;42.600;23.476;2022-09-16T15:24:33;22.50;63.31
67942;SHT31;54731;42.600;23.476;2022-09-16T15:26:58;22.35;64.19
67942;SHT31;54731;42.600;23.476;2022-09-16T15:31:50;22.14;64.90
67942;SHT31;54731;42.600;23.476;2022-09-16T15:36:40;22.06;65.10
67942;SHT31;54731;42.600;23.476;2022-09-16T15:39:43;21.98;63.91
67942;SHT31;54731;42.600;23.476;2022-09-16T15:49:46;21.90;59.97
67942;SHT31;54731;42.600;23.476;2022-09-16T15:52:12;21.90;59.08
67942;SHT31;54731;42.600;23.476;2022-09-16T15:54:47;21.89;60.86
67942;SHT31;54731;42.600;23.476;2022-09-16T16:00:03;21.63;60.00
67942;SHT31;54731;42.600;23.476;2022-09-16T16:02:57;21.58;59.78
67942;SHT31;54731;42.600;23.476;2022-09-16T16:05:26;21.52;59.53
67942;SHT31;54731;42.600;23.476;2022-09-16T16:07:57;21.58;59.32
67942;SHT31;54731;42.600;23.476;2022-09-16T16:10:28;21.49;59.09
67942;SHT31;54731;42.600;23.476;2022-09-16T16:12:54;21.42;59.17
67942;SHT31;54731;42.600;23.476;2022-09-16T16:15:28;21.41;59.55
67942;SHT31;54731;42.600;23.476;2022-09-16T16:17:57;21.42;59.49
67942;SHT31;54731;42.600;23.476;2022-09-16T16:20:23;21.39;59.67
67942;SHT31;54731;42.600;23.476;2022-09-16T16:22:49;21.37;59.50
67942;SHT31;54731;42.600;23.476;2022-09-16T16:25:14;21.28;60.00
67942;SHT31;54731;42.600;23.476;2022-09-16T16:27:39;21.30;60.00
67942;SHT31;54731;42.600;23.476;2022-09-16T16:30:06;21.23;60.59
67942;SHT31;54731;42.600;23.476;2022-09-16T16:32:32;21.15;60.82
67942;SHT31;54731;42.600;23.476;2022-09-16T16:34:57;21.11;64.61
67942;SHT31;54731;42.600;23.476;2022-09-16T16:37:23;21.01;67.06
67942;SHT31;54731;42.600;23.476;2022-09-16T16:39:48;20.93;67.87
67942;SHT31;54731;42.600;23.476;2022-09-16T16:42:14;20.74;69.55
67942;SHT31;54731;42.600;23.476;2022-09-16T16:44:40;20.62;69.93
67942;SHT31;54731;42.600;23.476;2022-09-16T16:47:06;20.60;70.17
67942;SHT31;54731;42.600;23.476;2022-09-16T16:49:31;20.54;70.75
67942;SHT31;54731;42.600;23.476;2022-09-16T16:51:57;20.46;71.00
67942;SHT31;54731;42.600;23.476;2022-09-16T16:54:23;20.44;70.97
67942;SHT31;54731;42.600;23.476;2022-09-16T16:56:48;20.43;71.23
67942;SHT31;54731;42.600;23.476;2022-09-16T16:59:15;20.36;71.38
67942;SHT31;54731;42.600;23.476;2022-09-16T17:01:41;20.26;71.84
67942;SHT31;54731;42.600;23.476;2022-09-16T17:04:07;20.23;71.99
67942;SHT31;54731;42.600;23.476;2022-09-16T17:06:33;20.13;71.93
67942;SHT31;54731;42.600;23.476;2022-09-16T17:08:58;20.06;72.15
67942;SHT31;54731;42.600;23.476;2022-09-16T17:11:24;20.05;72.24
67942;SHT31;54731;42.600;23.476;2022-09-16T17:13:52;20.06;72.42
67942;SHT31;54731;42.600;23.476;2022-09-16T17:16:20;19.92;72.86
67942;SHT31;54731;42.600;23.476;2022-09-16T17:18:45;19.85;72.92
67942;SHT31;54731;42.600;23.476;2022-09-16T17:21:33;19.85;73.01
67942;SHT31;54731;42.600;23.476;2022-09-16T17:23:58;19.81;73.09
67942;SHT31;54731;42.600;23.476;2022-09-16T17:26:24;19.68;73.58
67942;SHT31;54731;42.600;23.476;2022-09-16T17:28:51;19.62;73.89
67942;SHT31;54731;42.600;23.476;2022-09-16T17:31:23;19.53;74.10
67942;SHT31;54731;42.600;23.476;2022-09-16T17:33:51;19.55;73.79
67942;SHT31;54731;42.600;23.476;2022-09-16T17:36:18;19.53;74.03
67942;SHT31;54731;42.600;23.476;2022-09-16T17:38:43;19.55;73.58
67942;SHT31;54731;42.600;23.476;2022-09-16T17:41:10;19.43;73.79
67942;SHT31;54731;42.600;23.476;2022-09-16T17:43:36;19.43;73.47
67942;SHT31;54731;42.600;23.476;2022-09-16T17:46:04;19.39;73.53
67942;SHT31;54731;42.600;23.476;2022-09-16T17:48:30;19.23;74.02
67942;SHT31;54731;42.600;23.476;2022-09-16T17:50:56;19.26;74.23
67942;SHT31;54731;42.600;23.476;2022-09-16T17:53:22;19.14;74.15
67942;SHT31;54731;42.600;23.476;2022-09-16T17:55:48;19.10;74.45
67942;SHT31;54731;42.600;23.476;2022-09-16T17:58:14;19.07;74.83
67942;SHT31;54731;42.600;23.476;2022-09-16T18:00:39;19.06;74.54
67942;SHT31;54731;42.600;23.476;2022-09-16T18:03:04;19.07;74.55
67942;SHT31;54731;42.600;23.476;2022-09-16T18:05:34;18.97;74.63
67942;SHT31;54731;42.600;23.476;2022-09-16T18:08:00;18.99;74.32
67942;SHT31;54731;42.600;23.476;2022-09-16T18:10:25;19.02;73.97
67942;SHT31;54731;42.600;23.476;2022-09-16T18:12:50;18.97;74.11
67942;SHT31;54731;42.600;23.476;2022-09-16T18:15:16;19.00;73.96
67942;SHT31;54731;42.600;23.476;2022-09-16T18:17:41;18.99;74.34
67942;SHT31;54731;42.600;23.476;2022-09-16T18:20:07;19.00;73.94
67942;SHT31;54731;42.600;23.476;2022-09-16T18:22:32;18.93;74.33
67942;SHT31;54731;42.600;23.476;2022-09-16T18:24:57;18.82;74.24
67942;SHT31;54731;42.600;23.476;2022-09-16T18:27:24;18.74;74.58
67942;SHT31;54731;42.600;23.476;2022-09-16T18:29:49;18.66;74.82
67942;SHT31;54731;42.600;23.476;2022-09-16T18:32:14;18.63;74.65